createdAt,value
2019-04-21T00:00:54.201Z,83.30
2019-04-21T00:03:35.643Z,84.20
2019-04-21T00:06:23.698Z,83.90
2019-04-21T00:08:57.942Z,84.10
2019-04-21T00:11:34.317Z,84.40
2019-04-21T00:14:02.161Z,84.50
2019-04-21T00:16:34.733Z,84.60
2019-04-21T00:19:45.979Z,84.80
2019-04-21T00:22:36.734Z,85.00
2019-04-21T00:25:11.830Z,85.30
2019-04-21T00:27:50.193Z,85.60
2019-04-21T00:30:30.731Z,85.80
2019-04-21T00:33:13.868Z,85.90
2019-04-21T00:35:54.962Z,85.90
2019-04-21T00:39:03.046Z,86.20
2019-04-21T00:41:32.150Z,86.30
2019-04-21T00:44:18.015Z,86.60
2019-04-21T00:46:51.614Z,87.00
2019-04-21T00:49:27.124Z,87.30
2019-04-21T00:52:46.257Z,87.50
2019-04-21T00:57:58.486Z,87.50
2019-04-21T01:00:33.971Z,87.80
2019-04-21T01:03:26.388Z,88.20
2019-04-21T01:05:58.958Z,88.70
2019-04-21T01:08:46.823Z,89.80
2019-04-21T01:11:21.500Z,90.20
2019-04-21T01:13:59.625Z,90.70
2019-04-21T01:16:33.169Z,91.10
2019-04-21T01:19:05.086Z,91.40
2019-04-21T01:21:17.575Z,91.70
2019-04-21T01:23:50.654Z,92.00
2019-04-21T01:26:32.510Z,92.40
2019-04-21T01:29:38.259Z,92.70
2019-04-21T01:32:13.240Z,93.00
2019-04-21T01:34:45.500Z,93.20
2019-04-21T01:37:42.411Z,93.30
2019-04-21T01:40:14.281Z,93.30
2019-04-21T01:42:38.855Z,93.40
2019-04-21T01:45:09.350Z,93.50
2019-04-21T01:47:40.572Z,93.80
2019-04-21T01:50:08.427Z,94.00
2019-04-21T01:52:58.942Z,94.10
2019-04-21T01:56:04.905Z,94.30
2019-04-21T01:58:28.910Z,94.50
2019-04-21T02:01:05.679Z,94.60
2019-04-21T02:03:54.476Z,95.10
2019-04-21T02:06:19.099Z,95.40
2019-04-21T02:08:41.784Z,95.90
2019-04-21T02:11:18.853Z,96.30
2019-04-21T02:13:53.163Z,96.80
2019-04-21T02:16:18.222Z,97.00
2019-04-21T02:18:52.933Z,97.60
2019-04-21T02:21:19.068Z,97.90
2019-04-21T02:23:58.936Z,98.20
2019-04-21T02:26:29.957Z,98.40
2019-04-21T02:29:02.018Z,98.40
2019-04-21T02:31:36.215Z,98.60
2019-04-21T02:34:11.359Z,98.90
2019-04-21T02:37:13.636Z,99.30
2019-04-21T02:39:23.084Z,99.70
2019-04-21T02:44:32.744Z,99.90
2019-04-21T02:46:46.378Z,99.90
2019-04-21T02:52:13.832Z,99.90
2019-04-21T02:57:18.591Z,99.90
2019-04-21T03:00:00.450Z,99.90
2019-04-21T03:02:55.045Z,99.90
2019-04-21T03:05:51.175Z,99.90
2019-04-21T03:08:40.372Z,99.90
2019-04-21T03:11:02.499Z,99.90
2019-04-21T03:16:10.108Z,99.90
2019-04-21T03:21:07.500Z,99.90
2019-04-21T03:23:54.006Z,99.90
2019-04-21T03:28:39.065Z,99.90
2019-04-21T03:36:40.975Z,99.90
2019-04-21T03:38:45.362Z,99.90
2019-04-21T03:41:22.205Z,99.90
2019-04-21T03:44:08.057Z,99.90
2019-04-21T03:49:02.300Z,99.90
2019-04-21T03:54:00.582Z,99.90
2019-04-21T04:01:58.415Z,99.90
2019-04-21T04:04:49.185Z,99.90
2019-04-21T04:07:49.859Z,99.90
2019-04-21T04:15:20.543Z,99.90
2019-04-21T04:17:50.355Z,99.90
2019-04-21T04:23:11.661Z,99.90
2019-04-21T04:25:27.460Z,99.90
2019-04-21T04:30:43.667Z,99.90
2019-04-21T04:33:10.301Z,99.90
2019-04-21T04:35:49.429Z,99.90
2019-04-21T04:38:15.449Z,99.90
2019-04-21T04:41:11.663Z,99.90
2019-04-21T04:43:35.293Z,99.90
2019-04-21T04:51:39.951Z,99.90
2019-04-21T04:53:43.969Z,99.90
2019-04-21T04:56:16.385Z,99.90
2019-04-21T05:01:24.697Z,99.90
2019-04-21T05:03:57.049Z,99.90
2019-04-21T05:09:27.086Z,99.90
2019-04-21T05:17:03.892Z,99.90
2019-04-21T06:13:02.387Z,99.90
2019-04-21T06:15:34.939Z,99.90
2019-04-21T06:37:40.556Z,99.90
2019-04-21T06:40:10.443Z,99.90
2019-04-21T06:42:28.570Z,99.90
2019-04-21T06:45:07.229Z,99.90
2019-04-21T06:47:39.442Z,99.90
2019-04-21T06:50:00.422Z,99.90
2019-04-21T06:52:46.260Z,99.90
2019-04-21T06:55:10.244Z,99.90
2019-04-21T07:00:07.441Z,99.90
2019-04-21T07:05:08.930Z,99.90
2019-04-21T07:07:43.275Z,99.90
2019-04-21T07:12:42.909Z,99.90
2019-04-21T07:15:14.179Z,99.90
2019-04-21T07:17:45.649Z,99.90
2019-04-21T07:20:18.792Z,99.90
2019-04-21T07:22:47.808Z,99.90
2019-04-21T07:25:22.650Z,99.90
2019-04-21T07:27:56.686Z,99.90
2019-04-21T07:30:26.747Z,99.90
2019-04-21T07:32:56.532Z,99.90
2019-04-21T07:35:28.129Z,99.90
2019-04-21T07:37:53.499Z,99.90
2019-04-21T07:40:22.355Z,99.90
2019-04-21T07:42:52.597Z,99.90
2019-04-21T07:45:22.974Z,99.90
2019-04-21T07:48:01.924Z,99.90
2019-04-21T07:50:51.920Z,99.90
2019-04-21T07:53:27.694Z,99.90
2019-04-21T07:55:36.139Z,99.90
2019-04-21T07:58:26.522Z,99.90
2019-04-21T08:03:26.479Z,99.90
2019-04-21T08:06:02.142Z,99.90
2019-04-21T08:08:28.142Z,99.90
2019-04-21T08:10:59.739Z,99.90
2019-04-21T08:13:41.584Z,99.70
2019-04-21T08:16:04.730Z,99.90
2019-04-21T08:18:39.840Z,99.60
2019-04-21T08:21:09.074Z,99.00
2019-04-21T08:23:40.178Z,99.80
2019-04-21T08:26:07.997Z,99.30
2019-04-21T08:29:12.675Z,99.80
2019-04-21T08:31:46.933Z,98.40
2019-04-21T08:39:59.393Z,98.30
2019-04-21T08:42:25.598Z,98.10
2019-04-21T08:45:00.278Z,99.00
2019-04-21T08:47:55.238Z,98.30
2019-04-21T08:50:46.174Z,97.80
2019-04-21T08:53:13.761Z,97.50
2019-04-21T09:13:30.817Z,96.80
2019-04-21T09:15:59.576Z,96.60
2019-04-21T09:22:02.186Z,96.40
2019-04-21T09:24:35.141Z,96.00
2019-04-21T09:27:03.774Z,97.70
2019-04-21T09:29:28.710Z,96.40
2019-04-21T09:31:52.964Z,95.20
2019-04-21T09:34:24.977Z,96.00
2019-04-21T09:36:59.018Z,94.50
2019-04-21T09:39:30.037Z,93.90
2019-04-21T09:42:02.759Z,95.60
2019-04-21T09:44:38.607Z,94.60
2019-04-21T09:47:08.815Z,93.60
2019-04-21T09:49:40.143Z,94.50
2019-04-21T09:52:16.968Z,94.70
2019-04-21T10:00:30.654Z,94.50
2019-04-21T10:03:06.066Z,92.90
2019-04-21T10:05:33.861Z,93.20
2019-04-21T10:08:10.324Z,93.10
2019-04-21T10:11:31.124Z,92.30
2019-04-21T10:13:44.247Z,92.30
2019-04-21T10:16:36.387Z,92.50
2019-04-21T10:19:08.781Z,92.20
2019-04-21T10:21:54.195Z,91.80
2019-04-21T10:24:24.485Z,91.10
2019-04-21T10:26:55.195Z,91.50
2019-04-21T10:29:29.102Z,93.40
2019-04-21T10:31:57.265Z,91.70
2019-04-21T10:34:27.327Z,91.30
2019-04-21T10:36:57.007Z,91.00
2019-04-21T10:39:37.710Z,90.90
2019-04-21T10:42:48.384Z,90.50
2019-04-21T10:45:50.623Z,90.40
2019-04-21T10:48:31.656Z,87.50
2019-04-21T10:57:00.409Z,84.00
2019-04-21T11:27:14.899Z,77.90
2019-04-21T11:29:47.461Z,74.50
2019-04-21T11:32:22.889Z,79.80
2019-04-21T11:35:03.281Z,77.60
2019-04-21T11:37:37.874Z,76.10
2019-04-21T11:40:14.031Z,75.60
2019-04-21T11:43:17.798Z,76.40
2019-04-21T11:51:23.118Z,73.90
2019-04-21T11:54:26.632Z,75.20
2019-04-21T11:57:14.058Z,73.60
2019-04-21T11:59:44.089Z,72.40
2019-04-21T12:02:23.472Z,73.80
2019-04-21T12:04:54.109Z,72.50
2019-04-21T12:08:15.821Z,73.00
2019-04-21T12:10:59.742Z,74.70
2019-04-21T12:13:32.184Z,73.40
2019-04-21T12:16:33.008Z,73.30
2019-04-21T16:25:00.900Z,54.30
2019-04-21T16:27:47.639Z,54.30
2019-04-21T16:34:01.133Z,54.00
2019-04-21T16:36:36.301Z,54.20
2019-04-21T16:39:23.159Z,54.90
2019-04-21T16:42:25.509Z,54.00
2019-04-21T16:45:42.910Z,53.90
2019-04-21T16:48:15.176Z,54.00
2019-04-21T16:57:21.722Z,56.20
2019-04-21T17:03:28.356Z,56.70
2019-04-21T17:09:40.939Z,57.70
2019-04-21T17:27:13.147Z,58.20
2019-04-21T17:42:27.875Z,56.80
2019-04-21T18:48:40.092Z,66.50
2019-04-21T18:54:54.825Z,67.00
2019-04-21T18:58:15.815Z,68.20
2019-04-21T19:20:10.427Z,72.60
2019-04-21T19:36:19.431Z,72.40
2019-04-21T19:39:58.931Z,72.50
2019-04-21T19:43:03.406Z,72.80
2019-04-21T19:46:10.037Z,71.70
2019-04-21T19:55:14.222Z,71.90
2019-04-21T19:57:47.159Z,72.70
2019-04-21T20:00:22.443Z,72.30
2019-04-21T20:03:03.069Z,73.20
2019-04-21T20:05:41.827Z,73.40
2019-04-21T20:08:27.834Z,72.60
2019-04-21T20:11:43.103Z,73.40
2019-04-21T20:14:43.052Z,73.10
2019-04-21T20:17:11.469Z,74.10
2019-04-21T20:19:36.226Z,72.70
2019-04-21T20:22:11.408Z,74.30
2019-04-21T20:24:49.859Z,74.50
2019-04-21T20:27:29.583Z,73.10
2019-04-21T20:30:14.007Z,73.60
2019-04-21T20:33:19.811Z,73.90
2019-04-21T20:36:09.720Z,75.00
2019-04-21T20:38:31.182Z,75.10
2019-04-21T20:41:19.624Z,74.80
2019-04-21T20:44:00.491Z,74.00
2019-04-21T20:46:35.111Z,75.00
2019-04-21T20:49:34.603Z,74.60
2019-04-21T20:52:41.749Z,74.30
2019-04-21T20:55:15.585Z,73.80
2019-04-21T21:07:44.116Z,72.80
2019-04-21T21:10:38.611Z,72.10
2019-04-21T21:17:46.795Z,72.20
2019-04-21T21:20:14.338Z,72.60
2019-04-21T21:26:14.816Z,71.70
2019-04-21T21:32:52.445Z,71.90
2019-04-21T21:41:31.770Z,72.20
2019-04-21T21:44:58.547Z,72.60
2019-04-21T21:47:46.199Z,72.30
2019-04-21T21:53:28.431Z,73.40
2019-04-21T21:56:28.874Z,73.70
2019-04-21T21:59:42.208Z,74.10
2019-04-21T22:03:03.491Z,74.40
2019-04-21T22:06:17.469Z,74.90
2019-04-21T22:09:26.219Z,75.20
2019-04-21T22:18:59.895Z,76.50
2019-04-21T22:21:53.279Z,77.10
2019-04-21T22:24:46.984Z,77.30
2019-04-21T22:27:35.199Z,77.80
2019-04-21T22:30:39.256Z,78.10
2019-04-21T22:33:55.411Z,78.40
2019-04-21T22:36:38.091Z,78.60
2019-04-21T22:39:34.968Z,79.10
2019-04-21T22:42:21.403Z,79.00
2019-04-21T22:44:50.456Z,79.50
2019-04-21T22:47:31.965Z,79.90
2019-04-21T22:50:10.599Z,79.90
2019-04-21T22:53:17.883Z,80.20
2019-04-21T22:55:49.515Z,80.30
2019-04-21T22:58:53.013Z,80.80
2019-04-21T23:01:35.102Z,81.10
2019-04-21T23:04:07.180Z,81.40
2019-04-21T23:06:42.681Z,81.70
2019-04-21T23:09:37.103Z,82.00
2019-04-21T23:12:36.274Z,82.30
2019-04-21T23:15:34.495Z,82.70
2019-04-21T23:18:20.423Z,82.80
2019-04-21T23:21:06.194Z,83.40
2019-04-21T23:24:34.647Z,83.80
2019-04-21T23:26:57.196Z,83.90
2019-04-21T23:32:35.313Z,84.70
2019-04-21T23:35:21.790Z,85.00
2019-04-21T23:38:05.001Z,85.40
2019-04-21T23:40:48.754Z,85.90
2019-04-21T23:43:21.331Z,86.00
2019-04-21T23:45:55.048Z,86.50
2019-04-21T23:48:43.838Z,86.90
2019-04-21T23:51:17.181Z,87.20
2019-04-21T23:53:39.564Z,87.60
2019-04-21T23:56:23.200Z,88.10
2019-04-21T23:59:22.614Z,88.20
